Aérodrome :
LOGIN :

S'inscrire | Disclaimer

   EN    FR    IT 

 










Légende :    VFR   VFR Marginal   IFR   IFR Intensif   IFR Très Intensif
Visi : 
Plafond : 
>= 8 km
>= 3000ft
5 à 8 km
1000 à 3000 ft
1500m à 5 km
500 à 1000 ft
800 à 1500m
200 à 500 ft
< 800m
< 200 ft
Symboles :   Orages  Brouillard  Fortes neiges  Fortes précipitations  Vent > 20 kt
SIGMETs :   Divers  Orages  Givrage  Turbulence  Onde Orograph.  Cendres Volcan.






- Altitude de l'aérodrome : -11 ft
- Code IATA : AMS


EHAM - Amsterdam Schiphol

DERNIER METAR :
  • 250555Z 34009KT 310V010 CAVOK 14/10 Q1033 NOSIG

METARs EXPIRÉS :
  • 250525Z 35008KT 320V020 CAVOK 13/11 Q1033 NOSIG
  • 250455Z 32007KT CAVOK 12/11 Q1032 NOSIG
  • 250425Z 30004KT CAVOK 11/09 Q1032 NOSIG
  • 250355Z 31004KT 280V340 CAVOK 10/09 Q1032 NOSIG
  • 250325Z 32006KT CAVOK 11/10 Q1032 NOSIG

TAF TAF EHAM
Valide du 25 à 06h jusqu'au 26 à 12h UTC


250456Z 2506/2612 30007KT 9999 FEW018
BECMG 2507/2510 33010KT
BECMG 2518/2521 VRB03KT
PROB30
TEMPO 2601/2606 4000 MIFG BR
BECMG 2605/2608 18006KT



MET'MAP, la Météo Aéronautique d'un coup d'oeil ! - Copyright ORBIFLY Décembre 2007 - Disclaimer

ORBIFLY MET'MAP TEAM :

Programmation & Développement : Alexandra Zaïnal
Sur une idée originale de : Baudouin d'Aumeries
Assistance à la programmation : Marc-Olivier Méhu
Soutien technique & logistique : Manuel Goepfert

Contact : metmap@orbifly.com




SOURCES & CREDITS :

   NOAA